sensor_id;sensor_type;location;lat;lon;timestamp;pressure;altitude;pressure_sealevel;temperature;humidity
23473;BME280;11909;52.516;13.564;2023-07-30T00:02:03;100173.50;;;17.26;100.00
23473;BME280;11909;52.516;13.564;2023-07-30T00:04:31;100177.75;;;17.23;100.00
23473;BME280;11909;52.516;13.564;2023-07-30T00:06:59;100174.06;;;17.19;100.00
23473;BME280;11909;52.516;13.564;2023-07-30T00:09:27;100177.16;;;17.17;100.00
23473;BME280;11909;52.516;13.564;2023-07-30T00:11:55;100175.06;;;17.14;100.00
23473;BME280;11909;52.516;13.564;2023-07-30T00:14:23;100175.75;;;17.11;100.00
23473;BME280;11909;52.516;13.564;2023-07-30T00:16:51;100174.59;;;17.12;100.00
23473;BME280;11909;52.516;13.564;2023-07-30T00:19:20;100169.50;;;17.14;100.00
23473;BME280;11909;52.516;13.564;2023-07-30T00:21:48;100171.50;;;17.14;100.00
23473;BME280;11909;52.516;13.564;2023-07-30T00:24:16;100170.19;;;17.11;100.00
23473;BME280;11909;52.516;13.564;2023-07-30T00:26:44;100162.56;;;17.08;100.00
23473;BME280;11909;52.516;13.564;2023-07-30T00:29:12;100170.41;;;17.06;100.00
23473;BME280;11909;52.516;13.564;2023-07-30T00:31:40;100169.59;;;17.05;100.00
23473;BME280;11909;52.516;13.564;2023-07-30T00:34:08;100164.72;;;17.02;100.00
23473;BME280;11909;52.516;13.564;2023-07-30T00:36:36;100158.72;;;17.00;100.00
23473;BME280;11909;52.516;13.564;2023-07-30T00:39:05;100154.97;;;16.96;100.00
23473;BME280;11909;52.516;13.564;2023-07-30T00:41:32;100166.72;;;16.93;100.00
23473;BME280;11909;52.516;13.564;2023-07-30T00:44:01;100156.31;;;16.90;100.00
23473;BME280;11909;52.516;13.564;2023-07-30T00:46:30;100157.47;;;16.89;100.00
23473;BME280;11909;52.516;13.564;2023-07-30T00:48:59;100157.31;;;16.85;100.00
23473;BME280;11909;52.516;13.564;2023-07-30T00:51:27;100160.41;;;16.84;100.00
23473;BME280;11909;52.516;13.564;2023-07-30T00:53:58;100150.84;;;16.81;100.00
23473;BME280;11909;52.516;13.564;2023-07-30T00:56:26;100149.22;;;16.80;100.00
23473;BME280;11909;52.516;13.564;2023-07-30T00:58:55;100132.81;;;16.75;100.00
23473;BME280;11909;52.516;13.564;2023-07-30T01:01:23;100141.75;;;16.72;100.00
23473;BME280;11909;52.516;13.564;2023-07-30T01:03:51;100135.75;;;16.70;100.00
23473;BME280;11909;52.516;13.564;2023-07-30T01:06:19;100131.38;;;16.69;100.00
23473;BME280;11909;52.516;13.564;2023-07-30T01:08:47;100132.88;;;16.66;100.00
23473;BME280;11909;52.516;13.564;2023-07-30T01:11:18;100128.81;;;16.63;100.00
23473;BME280;11909;52.516;13.564;2023-07-30T01:13:46;100135.84;;;16.61;100.00
23473;BME280;11909;52.516;13.564;2023-07-30T01:16:14;100140.09;;;16.58;100.00
23473;BME280;11909;52.516;13.564;2023-07-30T01:18:42;100153.00;;;16.54;100.00
23473;BME280;11909;52.516;13.564;2023-07-30T01:21:12;100148.59;;;16.53;100.00
23473;BME280;11909;52.516;13.564;2023-07-30T01:23:39;100154.81;;;16.50;100.00
23473;BME280;11909;52.516;13.564;2023-07-30T01:26:09;100159.84;;;16.48;100.00
23473;BME280;11909;52.516;13.564;2023-07-30T01:28:39;100161.81;;;16.47;100.00
23473;BME280;11909;52.516;13.564;2023-07-30T01:31:14;100162.97;;;16.46;100.00
23473;BME280;11909;52.516;13.564;2023-07-30T01:33:44;100163.28;;;16.45;100.00
23473;BME280;11909;52.516;13.564;2023-07-30T01:36:16;100172.63;;;16.40;100.00
23473;BME280;11909;52.516;13.564;2023-07-30T01:38:45;100175.25;;;16.37;100.00
23473;BME280;11909;52.516;13.564;2023-07-30T01:41:14;100179.16;;;16.36;100.00
23473;BME280;11909;52.516;13.564;2023-07-30T01:43:42;100176.22;;;16.32;100.00
23473;BME280;11909;52.516;13.564;2023-07-30T01:46:10;100178.41;;;16.26;100.00
23473;BME280;11909;52.516;13.564;2023-07-30T01:48:38;100183.59;;;16.28;100.00
23473;BME280;11909;52.516;13.564;2023-07-30T01:51:06;100187.50;;;16.27;100.00
23473;BME280;11909;52.516;13.564;2023-07-30T01:53:35;100194.50;;;16.24;100.00
23473;BME280;11909;52.516;13.564;2023-07-30T01:56:04;100186.53;;;16.23;100.00
23473;BME280;11909;52.516;13.564;2023-07-30T01:58:32;100198.75;;;16.22;100.00
23473;BME280;11909;52.516;13.564;2023-07-30T02:01:00;100199.44;;;16.18;100.00
23473;BME280;11909;52.516;13.564;2023-07-30T02:03:27;100192.59;;;16.16;100.00
23473;BME280;11909;52.516;13.564;2023-07-30T02:05:56;100203.00;;;16.19;100.00
23473;BME280;11909;52.516;13.564;2023-07-30T02:08:24;100187.88;;;16.16;100.00
23473;BME280;11909;52.516;13.564;2023-07-30T02:10:57;100193.75;;;16.15;100.00
23473;BME280;11909;52.516;13.564;2023-07-30T02:13:25;100192.13;;;16.14;100.00
23473;BME280;11909;52.516;13.564;2023-07-30T02:15:53;100191.28;;;16.13;100.00
23473;BME280;11909;52.516;13.564;2023-07-30T02:18:21;100194.06;;;16.13;100.00
23473;BME280;11909;52.516;13.564;2023-07-30T02:20:49;100187.72;;;16.13;100.00
23473;BME280;11909;52.516;13.564;2023-07-30T02:23:17;100192.31;;;16.09;100.00
23473;BME280;11909;52.516;13.564;2023-07-30T02:25:45;100190.34;;;16.09;100.00
23473;BME280;11909;52.516;13.564;2023-07-30T02:28:14;100184.78;;;16.09;100.00
23473;BME280;11909;52.516;13.564;2023-07-30T02:30:43;100190.69;;;16.08;100.00
23473;BME280;11909;52.516;13.564;2023-07-30T02:33:11;100187.44;;;16.05;100.00
23473;BME280;11909;52.516;13.564;2023-07-30T02:35:38;100197.19;;;16.03;100.00
23473;BME280;11909;52.516;13.564;2023-07-30T02:38:07;100209.41;;;16.02;100.00
23473;BME280;11909;52.516;13.564;2023-07-30T02:40:34;100200.47;;;15.96;100.00
23473;BME280;11909;52.516;13.564;2023-07-30T02:43:03;100200.81;;;15.95;100.00
23473;BME280;11909;52.516;13.564;2023-07-30T02:45:32;100192.03;;;15.93;100.00
23473;BME280;11909;52.516;13.564;2023-07-30T02:48:00;100193.50;;;15.90;100.00
23473;BME280;11909;52.516;13.564;2023-07-30T02:50:29;100188.28;;;15.88;100.00
23473;BME280;11909;52.516;13.564;2023-07-30T02:52:57;100193.00;;;15.88;100.00
23473;BME280;11909;52.516;13.564;2023-07-30T02:55:25;100187.47;;;15.88;100.00
23473;BME280;11909;52.516;13.564;2023-07-30T02:57:53;100208.13;;;15.90;100.00
23473;BME280;11909;52.516;13.564;2023-07-30T03:00:21;100206.50;;;15.89;100.00
23473;BME280;11909;52.516;13.564;2023-07-30T03:02:50;100204.38;;;15.86;100.00
23473;BME280;11909;52.516;13.564;2023-07-30T03:05:18;100211.53;;;15.87;100.00
23473;BME280;11909;52.516;13.564;2023-07-30T03:07:47;100204.06;;;15.88;100.00
23473;BME280;11909;52.516;13.564;2023-07-30T03:10:14;100205.19;;;15.87;100.00
23473;BME280;11909;52.516;13.564;2023-07-30T03:12:42;100206.34;;;15.86;100.00
23473;BME280;11909;52.516;13.564;2023-07-30T03:15:10;100206.66;;;15.84;100.00
23473;BME280;11909;52.516;13.564;2023-07-30T03:17:38;100214.66;;;15.86;100.00
23473;BME280;11909;52.516;13.564;2023-07-30T03:20:08;100213.19;;;15.88;100.00
23473;BME280;11909;52.516;13.564;2023-07-30T03:22:37;100205.72;;;15.89;100.00
23473;BME280;11909;52.516;13.564;2023-07-30T03:25:05;100200.81;;;15.86;100.00
23473;BME280;11909;52.516;13.564;2023-07-30T03:27:33;100213.50;;;15.87;100.00
23473;BME280;11909;52.516;13.564;2023-07-30T03:30:01;100211.88;;;15.86;100.00
23473;BME280;11909;52.516;13.564;2023-07-30T03:32:29;100218.56;;;15.85;100.00
23473;BME280;11909;52.516;13.564;2023-07-30T03:34:56;100220.19;;;15.86;100.00
23473;BME280;11909;52.516;13.564;2023-07-30T03:37:26;100214.97;;;15.84;100.00
23473;BME280;11909;52.516;13.564;2023-07-30T03:39:54;100225.38;;;15.87;100.00
23473;BME280;11909;52.516;13.564;2023-07-30T03:42:22;100221.97;;;15.90;100.00
23473;BME280;11909;52.516;13.564;2023-07-30T03:44:49;100223.44;;;15.88;100.00
23473;BME280;11909;52.516;13.564;2023-07-30T03:47:17;100224.41;;;15.83;100.00
23473;BME280;11909;52.516;13.564;2023-07-30T03:49:45;100221.16;;;15.81;100.00
23473;BME280;11909;52.516;13.564;2023-07-30T03:52:14;100227.16;;;15.83;100.00
23473;BME280;11909;52.516;13.564;2023-07-30T03:54:45;100232.38;;;15.85;100.00
23473;BME280;11909;52.516;13.564;2023-07-30T03:57:13;100230.09;;;15.87;100.00
23473;BME280;11909;52.516;13.564;2023-07-30T03:59:41;100232.72;;;15.83;100.00
23473;BME280;11909;52.516;13.564;2023-07-30T04:02:08;100227.84;;;15.80;100.00
23473;BME280;11909;52.516;13.564;2023-07-30T04:04:42;100228.66;;;15.81;100.00
23473;BME280;11909;52.516;13.564;2023-07-30T04:07:11;100236.63;;;15.82;100.00
23473;BME280;11909;52.516;13.564;2023-07-30T04:09:39;100241.00;;;15.83;100.00
23473;BME280;11909;52.516;13.564;2023-07-30T04:12:08;100237.09;;;15.84;100.00
23473;BME280;11909;52.516;13.564;2023-07-30T04:14:36;100236.63;;;15.82;100.00
23473;BME280;11909;52.516;13.564;2023-07-30T04:17:04;100243.13;;;15.77;100.00
23473;BME280;11909;52.516;13.564;2023-07-30T04:19:32;100244.44;;;15.80;100.00
23473;BME280;11909;52.516;13.564;2023-07-30T04:21:59;100238.91;;;15.80;100.00
23473;BME280;11909;52.516;13.564;2023-07-30T04:24:28;100248.66;;;15.77;100.00
23473;BME280;11909;52.516;13.564;2023-07-30T04:26:55;100247.50;;;15.78;100.00
23473;BME280;11909;52.516;13.564;2023-07-30T04:29:25;100241.19;;;15.87;100.00
23473;BME280;11909;52.516;13.564;2023-07-30T04:31:53;100243.78;;;15.92;100.00
23473;BME280;11909;52.516;13.564;2023-07-30T04:34:21;100249.16;;;15.88;100.00
23473;BME280;11909;52.516;13.564;2023-07-30T04:36:48;100248.19;;;15.93;100.00
23473;BME280;11909;52.516;13.564;2023-07-30T04:39:16;100267.38;;;15.89;100.00
23473;BME280;11909;52.516;13.564;2023-07-30T04:41:44;100255.16;;;15.90;100.00
23473;BME280;11909;52.516;13.564;2023-07-30T04:44:12;100247.50;;;15.87;100.00
23473;BME280;11909;52.516;13.564;2023-07-30T04:46:41;100251.09;;;15.88;100.00
23473;BME280;11909;52.516;13.564;2023-07-30T04:49:09;100259.72;;;15.86;100.00
23473;BME280;11909;52.516;13.564;2023-07-30T04:51:38;100256.31;;;15.81;100.00
23473;BME280;11909;52.516;13.564;2023-07-30T04:54:06;100257.59;;;15.83;100.00
23473;BME280;11909;52.516;13.564;2023-07-30T04:56:34;100257.59;;;15.83;100.00
23473;BME280;11909;52.516;13.564;2023-07-30T04:59:02;100259.72;;;15.95;100.00
23473;BME280;11909;52.516;13.564;2023-07-30T05:01:30;100256.31;;;15.89;100.00
23473;BME280;11909;52.516;13.564;2023-07-30T05:04:00;100250.94;;;15.93;100.00
23473;BME280;11909;52.516;13.564;2023-07-30T05:06:28;100241.97;;;15.87;100.00
23473;BME280;11909;52.516;13.564;2023-07-30T05:08:56;100248.00;;;15.89;100.00
23473;BME280;11909;52.516;13.564;2023-07-30T05:11:24;100244.75;;;15.87;100.00
23473;BME280;11909;52.516;13.564;2023-07-30T05:13:52;100263.81;;;15.89;100.00
23473;BME280;11909;52.516;13.564;2023-07-30T05:16:20;100257.94;;;15.90;100.00
23473;BME280;11909;52.516;13.564;2023-07-30T05:18:48;100253.06;;;15.96;100.00
23473;BME280;11909;52.516;13.564;2023-07-30T05:21:17;100252.88;;;16.01;100.00
23473;BME280;11909;52.516;13.564;2023-07-30T05:23:45;100249.78;;;16.03;100.00
23473;BME280;11909;52.516;13.564;2023-07-30T05:26:13;100254.66;;;16.06;100.00
23473;BME280;11909;52.516;13.564;2023-07-30T05:28:40;100248.63;;;16.13;100.00
23473;BME280;11909;52.516;13.564;2023-07-30T05:31:09;100263.09;;;16.18;100.00
23473;BME280;11909;52.516;13.564;2023-07-30T05:33:37;100264.06;;;16.23;100.00
23473;BME280;11909;52.516;13.564;2023-07-30T05:36:05;100259.66;;;16.22;100.00
23473;BME280;11909;52.516;13.564;2023-07-30T05:38:34;100263.06;;;16.27;100.00
23473;BME280;11909;52.516;13.564;2023-07-30T05:41:02;100259.16;;;16.28;100.00
23473;BME280;11909;52.516;13.564;2023-07-30T05:43:30;100252.97;;;16.31;100.00
23473;BME280;11909;52.516;13.564;2023-07-30T05:45:58;100261.06;;;16.37;100.00
23473;BME280;11909;52.516;13.564;2023-07-30T05:48:26;100252.94;;;16.40;100.00
23473;BME280;11909;52.516;13.564;2023-07-30T05:50:54;100255.69;;;16.40;100.00
23473;BME280;11909;52.516;13.564;2023-07-30T05:53:22;100261.03;;;16.45;100.00
23473;BME280;11909;52.516;13.564;2023-07-30T05:55:51;100251.88;;;16.54;100.00
23473;BME280;11909;52.516;13.564;2023-07-30T05:58:19;100263.44;;;16.56;100.00
23473;BME280;11909;52.516;13.564;2023-07-30T06:00:47;100260.16;;;16.62;100.00
23473;BME280;11909;52.516;13.564;2023-07-30T06:03:15;100265.84;;;16.66;100.00
23473;BME280;11909;52.516;13.564;2023-07-30T06:05:43;100266.56;;;16.84;100.00
23473;BME280;11909;52.516;13.564;2023-07-30T06:08:11;100256.66;;;16.74;100.00
23473;BME280;11909;52.516;13.564;2023-07-30T06:10:39;100260.38;;;16.78;100.00
23473;BME280;11909;52.516;13.564;2023-07-30T06:13:09;100252.06;;;16.78;100.00
23473;BME280;11909;52.516;13.564;2023-07-30T06:15:37;100255.16;;;16.86;100.00
23473;BME280;11909;52.516;13.564;2023-07-30T06:18:05;100253.03;;;16.83;100.00
23473;BME280;11909;52.516;13.564;2023-07-30T06:20:33;100256.41;;;16.88;100.00
23473;BME280;11909;52.516;13.564;2023-07-30T06:23:01;100253.13;;;16.95;100.00
23473;BME280;11909;52.516;13.564;2023-07-30T06:25:30;100262.41;;;16.99;100.00
23473;BME280;11909;52.516;13.564;2023-07-30T06:27:59;100254.09;;;16.99;100.00
23473;BME280;11909;52.516;13.564;2023-07-30T06:30:28;100253.78;;;17.01;100.00
23473;BME280;11909;52.516;13.564;2023-07-30T06:32:56;100260.88;;;17.11;100.00
23473;BME280;11909;52.516;13.564;2023-07-30T06:35:24;100260.41;;;17.09;100.00
23473;BME280;11909;52.516;13.564;2023-07-30T06:37:52;100263.66;;;17.32;100.00
23473;BME280;11909;52.516;13.564;2023-07-30T06:40:20;100274.47;;;17.46;100.00
23473;BME280;11909;52.516;13.564;2023-07-30T06:42:48;100270.25;;;17.61;100.00
23473;BME280;11909;52.516;13.564;2023-07-30T06:45:16;100267.44;;;17.48;100.00
23473;BME280;11909;52.516;13.564;2023-07-30T06:47:45;100270.22;;;17.48;100.00
23473;BME280;11909;52.516;13.564;2023-07-30T06:50:13;100268.06;;;17.54;100.00
23473;BME280;11909;52.516;13.564;2023-07-30T06:52:41;100278.94;;;17.59;100.00
23473;BME280;11909;52.516;13.564;2023-07-30T06:55:09;100270.63;;;17.59;100.00
23473;BME280;11909;52.516;13.564;2023-07-30T06:57:37;100262.28;;;17.59;100.00
23473;BME280;11909;52.516;13.564;2023-07-30T07:00:07;100267.63;;;17.65;100.00
23473;BME280;11909;52.516;13.564;2023-07-30T07:02:35;100266.25;;;17.71;100.00
23473;BME280;11909;52.516;13.564;2023-07-30T07:05:05;100268.47;;;17.77;100.00
23473;BME280;11909;52.516;13.564;2023-07-30T07:07:33;100277.97;;;17.76;100.00
23473;BME280;11909;52.516;13.564;2023-07-30T07:10:01;100266.88;;;17.76;100.00
23473;BME280;11909;52.516;13.564;2023-07-30T07:12:28;100258.88;;;17.75;100.00
23473;BME280;11909;52.516;13.564;2023-07-30T07:14:57;100260.97;;;17.78;100.00
23473;BME280;11909;52.516;13.564;2023-07-30T07:17:27;100260.75;;;17.83;100.00
23473;BME280;11909;52.516;13.564;2023-07-30T07:19:56;100265.97;;;17.85;100.00
23473;BME280;11909;52.516;13.564;2023-07-30T07:22:25;100267.72;;;17.89;100.00
23473;BME280;11909;52.516;13.564;2023-07-30T07:24:53;100267.50;;;17.95;100.00
23473;BME280;11909;52.516;13.564;2023-07-30T07:27:21;100265.31;;;18.00;100.00
23473;BME280;11909;52.516;13.564;2023-07-30T07:29:51;100254.84;;;18.06;100.00
23473;BME280;11909;52.516;13.564;2023-07-30T07:32:19;100254.28;;;18.13;100.00
23473;BME280;11909;52.516;13.564;2023-07-30T07:34:47;100248.03;;;18.16;100.00
23473;BME280;11909;52.516;13.564;2023-07-30T07:37:15;100253.38;;;18.21;100.00
23473;BME280;11909;52.516;13.564;2023-07-30T07:39:47;100249.78;;;18.33;100.00
23473;BME280;11909;52.516;13.564;2023-07-30T07:42:14;100252.56;;;18.33;100.00
23473;BME280;11909;52.516;13.564;2023-07-30T07:44:43;100258.59;;;18.35;100.00
23473;BME280;11909;52.516;13.564;2023-07-30T07:47:12;100252.00;;;18.40;100.00
23473;BME280;11909;52.516;13.564;2023-07-30T07:49:40;100255.84;;;18.47;100.00
23473;BME280;11909;52.516;13.564;2023-07-30T07:52:08;100255.94;;;18.63;100.00
23473;BME280;11909;52.516;13.564;2023-07-30T07:54:36;100265.53;;;18.66;100.00
23473;BME280;11909;52.516;13.564;2023-07-30T07:57:05;100262.19;;;18.73;100.00
23473;BME280;11909;52.516;13.564;2023-07-30T07:59:33;100258.84;;;18.80;98.87
23473;BME280;11909;52.516;13.564;2023-07-30T08:02:01;100256.97;;;18.84;99.76
23473;BME280;11909;52.516;13.564;2023-07-30T08:04:30;100251.41;;;18.84;100.00
23473;BME280;11909;52.516;13.564;2023-07-30T08:06:58;100263.91;;;18.90;98.20
23473;BME280;11909;52.516;13.564;2023-07-30T08:09:30;100261.38;;;18.97;98.10
23473;BME280;11909;52.516;13.564;2023-07-30T08:11:59;100258.94;;;19.08;99.08
23473;BME280;11909;52.516;13.564;2023-07-30T08:14:29;100258.69;;;19.13;98.48
23473;BME280;11909;52.516;13.564;2023-07-30T08:16:57;100248.16;;;19.19;99.17
23473;BME280;11909;52.516;13.564;2023-07-30T08:19:25;100261.56;;;19.29;100.00
23473;BME280;11909;52.516;13.564;2023-07-30T08:21:53;100257.84;;;19.38;100.00
23473;BME280;11909;52.516;13.564;2023-07-30T08:24:23;100260.53;;;19.62;93.65
23473;BME280;11909;52.516;13.564;2023-07-30T08:26:51;100268.09;;;19.78;91.76
23473;BME280;11909;52.516;13.564;2023-07-30T08:29:18;100262.28;;;19.83;93.60
23473;BME280;11909;52.516;13.564;2023-07-30T08:31:48;100267.75;;;20.08;92.04
23473;BME280;11909;52.516;13.564;2023-07-30T08:34:16;100264.78;;;20.17;91.49
23473;BME280;11909;52.516;13.564;2023-07-30T08:36:44;100267.75;;;20.08;90.19
23473;BME280;11909;52.516;13.564;2023-07-30T08:39:12;100262.81;;;20.01;92.09
23473;BME280;11909;52.516;13.564;2023-07-30T08:41:40;100268.09;;;20.06;93.66
23473;BME280;11909;52.516;13.564;2023-07-30T08:44:09;100278.91;;;20.08;90.31
23473;BME280;11909;52.516;13.564;2023-07-30T08:46:37;100272.63;;;20.11;89.71
23473;BME280;11909;52.516;13.564;2023-07-30T08:49:06;100275.91;;;20.01;88.73
23473;BME280;11909;52.516;13.564;2023-07-30T08:51:36;100271.31;;;19.92;88.41
23473;BME280;11909;52.516;13.564;2023-07-30T08:54:04;100274.44;;;19.91;89.80
23473;BME280;11909;52.516;13.564;2023-07-30T08:56:33;100276.34;;;20.03;87.53
23473;BME280;11909;52.516;13.564;2023-07-30T08:59:02;100265.88;;;20.12;88.25
23473;BME280;11909;52.516;13.564;2023-07-30T09:01:37;100263.00;;;20.25;90.82
23473;BME280;11909;52.516;13.564;2023-07-30T09:04:07;100273.34;;;20.40;85.33
23473;BME280;11909;52.516;13.564;2023-07-30T09:06:36;100281.34;;;20.58;81.52
23473;BME280;11909;52.516;13.564;2023-07-30T09:09:05;100280.16;;;20.75;82.37
23473;BME280;11909;52.516;13.564;2023-07-30T09:11:36;100295.94;;;21.19;77.25
23473;BME280;11909;52.516;13.564;2023-07-30T09:14:05;100295.94;;;21.19;77.73
23473;BME280;11909;52.516;13.564;2023-07-30T09:16:34;100315.78;;;21.33;71.21
23473;BME280;11909;52.516;13.564;2023-07-30T09:19:02;100309.72;;;21.12;72.19
23473;BME280;11909;52.516;13.564;2023-07-30T09:21:33;100318.09;;;21.12;71.69
23473;BME280;11909;52.516;13.564;2023-07-30T09:24:03;100311.66;;;20.91;72.49
23473;BME280;11909;52.516;13.564;2023-07-30T09:26:42;100314.25;;;20.84;73.05
23473;BME280;11909;52.516;13.564;2023-07-30T09:29:10;100307.56;;;21.05;73.97
23473;BME280;11909;52.516;13.564;2023-07-30T09:31:49;100324.38;;;21.25;69.09
23473;BME280;11909;52.516;13.564;2023-07-30T09:34:23;100318.06;;;21.28;71.51
23473;BME280;11909;52.516;13.564;2023-07-30T09:36:54;100323.31;;;21.49;70.13
23473;BME280;11909;52.516;13.564;2023-07-30T09:39:23;100326.41;;;21.63;69.59
23473;BME280;11909;52.516;13.564;2023-07-30T09:41:52;100329.66;;;21.66;67.47
23473;BME280;11909;52.516;13.564;2023-07-30T09:44:21;100334.44;;;21.65;67.85
23473;BME280;11909;52.516;13.564;2023-07-30T09:46:49;100331.47;;;21.58;68.04
23473;BME280;11909;52.516;13.564;2023-07-30T09:49:18;100347.09;;;21.43;64.76
23473;BME280;11909;52.516;13.564;2023-07-30T09:51:46;100338.84;;;21.30;65.44
23473;BME280;11909;52.516;13.564;2023-07-30T09:54:16;100343.56;;;21.26;67.04
23473;BME280;11909;52.516;13.564;2023-07-30T09:56:44;100340.75;;;21.26;64.49
23473;BME280;11909;52.516;13.564;2023-07-30T09:59:11;100337.97;;;21.26;65.89
23473;BME280;11909;52.516;13.564;2023-07-30T10:01:43;100343.84;;;21.41;63.70
23473;BME280;11909;52.516;13.564;2023-07-30T10:04:12;100351.69;;;21.51;61.35
23473;BME280;11909;52.516;13.564;2023-07-30T10:06:42;100348.19;;;21.74;60.72
23473;BME280;11909;52.516;13.564;2023-07-30T10:09:13;100354.06;;;21.88;58.87
23473;BME280;11909;52.516;13.564;2023-07-30T10:11:44;100349.72;;;22.11;59.19
23473;BME280;11909;52.516;13.564;2023-07-30T10:14:14;100367.09;;;22.43;54.66
23473;BME280;11909;52.516;13.564;2023-07-30T10:16:50;100340.34;;;22.42;57.37
23473;BME280;11909;52.516;13.564;2023-07-30T10:19:22;100343.03;;;22.58;57.42
23473;BME280;11909;52.516;13.564;2023-07-30T10:21:50;100337.94;;;22.64;60.17
23473;BME280;11909;52.516;13.564;2023-07-30T10:24:18;100342.03;;;22.70;59.24
23473;BME280;11909;52.516;13.564;2023-07-30T10:26:47;100351.34;;;22.78;58.17
23473;BME280;11909;52.516;13.564;2023-07-30T10:29:17;100348.09;;;22.99;56.51
23473;BME280;11909;52.516;13.564;2023-07-30T10:31:48;100349.44;;;22.82;54.90
23473;BME280;11909;52.516;13.564;2023-07-30T10:34:16;100346.09;;;22.73;56.73
23473;BME280;11909;52.516;13.564;2023-07-30T10:36:46;100340.22;;;22.82;57.10
23473;BME280;11909;52.516;13.564;2023-07-30T10:39:15;100345.44;;;22.83;54.40
23473;BME280;11909;52.516;13.564;2023-07-30T10:41:44;100339.34;;;22.77;57.60
23473;BME280;11909;52.516;13.564;2023-07-30T10:44:22;100352.75;;;22.91;57.76
23473;BME280;11909;52.516;13.564;2023-07-30T10:46:51;100358.59;;;23.06;53.23
23473;BME280;11909;52.516;13.564;2023-07-30T10:49:19;100365.81;;;23.07;50.92
23473;BME280;11909;52.516;13.564;2023-07-30T10:51:47;100349.22;;;22.95;51.16
23473;BME280;11909;52.516;13.564;2023-07-30T10:54:15;100354.44;;;22.96;52.01
23473;BME280;11909;52.516;13.564;2023-07-30T10:56:43;100359.53;;;23.14;49.68
23473;BME280;11909;52.516;13.564;2023-07-30T10:59:13;100356.44;;;23.23;49.75
23473;BME280;11909;52.516;13.564;2023-07-30T11:01:43;100361.09;;;23.38;49.88
23473;BME280;11909;52.516;13.564;2023-07-30T11:04:13;100355.59;;;23.45;51.17
23473;BME280;11909;52.516;13.564;2023-07-30T11:06:45;100358.41;;;23.45;50.56
23473;BME280;11909;52.516;13.564;2023-07-30T11:09:21;100367.16;;;23.17;48.09
23473;BME280;11909;52.516;13.564;2023-07-30T11:11:51;100353.97;;;23.17;51.32
23473;BME280;11909;52.516;13.564;2023-07-30T11:14:20;100343.59;;;23.45;50.47
23473;BME280;11909;52.516;13.564;2023-07-30T11:16:51;100324.06;;;23.52;54.76
23473;BME280;11909;52.516;13.564;2023-07-30T11:19:20;100334.75;;;23.43;52.60
23473;BME280;11909;52.516;13.564;2023-07-30T11:21:49;100354.50;;;23.54;48.80
23473;BME280;11909;52.516;13.564;2023-07-30T11:24:20;100346.19;;;23.61;49.08
23473;BME280;11909;52.516;13.564;2023-07-30T11:26:57;100337.56;;;23.73;48.27
23473;BME280;11909;52.516;13.564;2023-07-30T11:29:26;100341.50;;;23.69;48.58
23473;BME280;11909;52.516;13.564;2023-07-30T11:31:57;100337.56;;;23.73;48.58
23473;BME280;11909;52.516;13.564;2023-07-30T11:34:26;100336.50;;;23.85;47.08
23473;BME280;11909;52.516;13.564;2023-07-30T11:36:57;100329.28;;;23.84;49.81
23473;BME280;11909;52.516;13.564;2023-07-30T11:39:25;100329.78;;;23.94;48.49
23473;BME280;11909;52.516;13.564;2023-07-30T11:41:55;100329.16;;;24.08;47.04
23473;BME280;11909;52.516;13.564;2023-07-30T11:44:33;100315.16;;;24.08;50.00
23473;BME280;11909;52.516;13.564;2023-07-30T11:47:04;100348.13;;;24.18;45.18
23473;BME280;11909;52.516;13.564;2023-07-30T11:49:32;100337.69;;;24.15;45.22
23473;BME280;11909;52.516;13.564;2023-07-30T11:52:06;100339.13;;;24.01;45.79
23473;BME280;11909;52.516;13.564;2023-07-30T11:54:35;100344.78;;;24.05;43.47
23473;BME280;11909;52.516;13.564;2023-07-30T11:57:04;100344.16;;;24.23;43.17
23473;BME280;11909;52.516;13.564;2023-07-30T11:59:32;100331.44;;;24.32;43.23
23473;BME280;11909;52.516;13.564;2023-07-30T12:02:00;100338.72;;;24.41;42.08
23473;BME280;11909;52.516;13.564;2023-07-30T12:04:43;100329.50;;;24.40;44.34
23473;BME280;11909;52.516;13.564;2023-07-30T12:07:24;100323.16;;;24.47;46.45
23473;BME280;11909;52.516;13.564;2023-07-30T12:09:52;100322.84;;;24.56;44.34
23473;BME280;11909;52.516;13.564;2023-07-30T12:12:25;100333.69;;;24.57;42.54
23473;BME280;11909;52.516;13.564;2023-07-30T12:14:54;100331.28;;;24.59;43.40
23473;BME280;11909;52.516;13.564;2023-07-30T12:17:22;100338.94;;;24.62;44.27
23473;BME280;11909;52.516;13.564;2023-07-30T12:19:51;100319.34;;;24.70;43.21
23473;BME280;11909;52.516;13.564;2023-07-30T12:22:19;100302.88;;;24.65;47.89
23473;BME280;11909;52.516;13.564;2023-07-30T12:24:47;100324.44;;;24.57;45.66
23473;BME280;11909;52.516;13.564;2023-07-30T12:27:15;100315.56;;;24.47;45.63
23473;BME280;11909;52.516;13.564;2023-07-30T12:29:42;100313.56;;;24.48;45.22
23473;BME280;11909;52.516;13.564;2023-07-30T12:32:11;100331.63;;;24.54;44.01
23473;BME280;11909;52.516;13.564;2023-07-30T12:34:39;100333.59;;;24.46;42.73
23473;BME280;11909;52.516;13.564;2023-07-30T12:37:08;100323.94;;;24.44;43.66
23473;BME280;11909;52.516;13.564;2023-07-30T12:39:36;100314.69;;;24.40;46.41
23473;BME280;11909;52.516;13.564;2023-07-30T12:42:04;100316.31;;;24.44;44.95